Time;durP1;ratioP1;P1;durP2;ratioP2;P2;SDS_P1;SDS_P2;PMS_P1;PMS_P2;Temp;Humidity;BMP_temperature;BMP_pressure;BME280_temperature;BME280_humidity;BME280_pressure;Samples;Min_cycle;Max_cycle;Signal;HPM_P1;HPM_P2
2021/12/21 00:00:01;;;;;;;5.10;3.33;;;;;;;-2.10;66.01;100765.26;1481347;88;21440;-81
2021/12/21 00:02:28;;;;;;;5.75;3.00;;;;;;;-2.12;66.49;100768.39;1480232;88;21831;-81
2021/12/21 00:04:55;;;;;;;7.53;3.70;;;;;;;-2.20;67.09;100769.13;1481672;88;21491;-81
2021/12/21 00:07:22;;;;;;;10.45;3.92;;;;;;;-2.23;67.81;100770.53;1463434;88;21566;-81
2021/12/21 00:09:49;;;;;;;5.28;2.85;;;;;;;-2.25;68.62;100768.44;1479172;87;21670;-82
2021/12/21 00:12:18;;;;;;;9.13;3.92;;;;;;;-2.31;69.00;100770.36;1482478;87;23623;-81
2021/12/21 00:17:42;;;;;;;5.58;3.60;;;;;;;-2.42;69.70;100763.43;1489788;88;22357;-81
2021/12/21 00:20:06;;;;;;;6.15;2.95;;;;;;;-2.43;69.62;100769.52;1484347;87;21507;-80
2021/12/21 00:24:55;;;;;;;6.37;3.30;;;;;;;-2.46;68.59;100778.71;1492466;87;22630;-81
2021/12/21 00:27:22;;;;;;;10.82;3.90;;;;;;;-2.46;68.28;100781.76;1481427;87;21577;-82
2021/12/21 00:29:49;;;;;;;5.40;3.00;;;;;;;-2.48;68.24;100781.80;1478636;87;22004;-82
2021/12/21 00:32:16;;;;;;;5.83;3.87;;;;;;;-2.52;67.67;100788.85;1484092;87;21360;-83
2021/12/21 00:34:43;;;;;;;8.95;3.80;;;;;;;-2.51;67.57;100784.51;1491523;86;21388;-83
2021/12/21 00:37:10;;;;;;;7.37;2.62;;;;;;;-2.53;66.78;100788.92;1500373;86;21440;-82
2021/12/21 00:39:37;;;;;;;5.37;2.72;;;;;;;-2.57;66.50;100792.05;1502198;86;23484;-82
2021/12/21 00:42:06;;;;;;;7.58;3.60;;;;;;;-2.54;66.60;100794.53;1497579;86;21532;-82
2021/12/21 00:44:33;;;;;;;4.03;2.60;;;;;;;-2.59;66.41;100791.70;1501586;86;22549;-81
2021/12/21 00:47:00;;;;;;;2.92;2.05;;;;;;;-2.62;65.84;100795.70;1504000;86;21381;-82
2021/12/21 00:49:29;;;;;;;4.35;2.08;;;;;;;-2.67;64.90;100798.94;1503558;86;21366;-82
2021/12/21 00:51:56;;;;;;;4.42;2.65;;;;;;;-2.68;65.21;100802.41;1508614;86;21484;-83
2021/12/21 00:54:24;;;;;;;4.53;2.58;;;;;;;-2.78;65.11;100805.33;1497985;86;21463;-83
2021/12/21 00:56:51;;;;;;;6.42;2.70;;;;;;;-2.86;65.02;100806.03;1487873;87;21360;-82
2021/12/21 00:59:18;;;;;;;5.08;2.37;;;;;;;-2.90;64.74;100816.13;1490993;87;21874;-82
2021/12/21 01:01:45;;;;;;;5.78;3.40;;;;;;;-2.92;64.91;100819.66;1490627;87;23406;-82
2021/12/21 01:04:21;;;;;;;3.58;2.05;;;;;;;-2.98;64.30;100832.37;1492857;87;21411;-82
2021/12/21 01:06:49;;;;;;;5.12;2.42;;;;;;;-3.05;64.31;100839.92;1487080;87;22549;-82
2021/12/21 01:09:30;;;;;;;6.87;2.27;;;;;;;-3.11;64.07;100847.91;1497418;87;21441;-81
2021/12/21 01:11:51;;;;;;;3.60;2.15;;;;;;;-3.16;63.99;100850.66;1490379;87;21456;-83
2021/12/21 01:16:57;;;;;;;4.92;2.27;;;;;;;-3.23;64.25;100865.98;1495622;87;21589;-82
2021/12/21 01:19:18;;;;;;;3.95;2.15;;;;;;;-3.27;64.51;100874.75;1484700;87;22462;-82
2021/12/21 01:21:54;;;;;;;3.83;2.00;;;;;;;-3.31;64.49;100877.02;1488562;87;22017;-82
2021/12/21 01:24:27;;;;;;;5.83;2.27;;;;;;;-3.35;63.81;100871.10;1478691;87;21454;-82
2021/12/21 01:27:01;;;;;;;4.97;2.17;;;;;;;-3.33;64.28;100871.91;1488593;87;21633;-82
2021/12/21 01:29:31;;;;;;;3.83;2.40;;;;;;;-3.34;63.05;100877.96;1486769;87;21595;-82
2021/12/21 01:32:16;;;;;;;3.20;1.75;;;;;;;-3.32;62.97;100877.92;1489694;87;21463;-82
2021/12/21 01:34:52;;;;;;;4.00;1.87;;;;;;;-3.38;62.08;100877.67;1482278;87;21604;-82
2021/12/21 01:40:04;;;;;;;5.10;1.72;;;;;;;-3.38;61.65;100890.61;1491065;87;22240;-80
2021/12/21 01:42:47;;;;;;;5.80;2.45;;;;;;;-3.41;61.07;100893.30;1492255;87;22342;-81
2021/12/21 01:50:32;;;;;;;3.92;1.77;;;;;;;-3.52;61.36;100894.07;1489704;87;21540;-84
2021/12/21 01:53:00;;;;;;;5.60;3.08;;;;;;;-3.58;61.41;100906.75;1487939;87;21552;-84
2021/12/21 01:55:27;;;;;;;3.52;1.87;;;;;;;-3.53;62.12;100911.34;1491606;86;21462;-84
2021/12/21 01:57:54;;;;;;;4.78;2.37;;;;;;;-3.55;61.86;100910.98;1504134;86;22424;-85
2021/12/21 02:00:22;;;;;;;5.60;3.02;;;;;;;-3.62;61.34;100915.50;1493735;86;21396;-85
2021/12/21 02:02:49;;;;;;;3.77;2.08;;;;;;;-3.63;61.19;100915.09;1502751;86;22380;-84
2021/12/21 02:05:16;;;;;;;5.05;2.65;;;;;;;-3.65;60.57;100924.66;1492086;86;21382;-83
2021/12/21 02:07:44;;;;;;;3.85;1.75;;;;;;;-3.64;60.59;100922.45;1497610;86;21478;-82
2021/12/21 02:10:11;;;;;;;4.22;1.70;;;;;;;-3.67;60.83;100928.56;1497909;86;21396;-83
2021/12/21 02:12:38;;;;;;;5.47;1.77;;;;;;;-3.68;61.41;100928.63;1499362;86;21359;-82
2021/12/21 02:15:06;;;;;;;6.50;2.45;;;;;;;-3.72;61.30;100930.44;1502680;86;21533;-83
2021/12/21 02:18:02;;;;;;;4.97;2.42;;;;;;;-3.74;61.38;100939.13;1493448;86;21477;-83
2021/12/21 02:20:19;;;;;;;4.83;1.80;;;;;;;-3.76;61.04;100937.89;1502608;86;22863;-83
2021/12/21 02:22:42;;;;;;;7.53;2.02;;;;;;;-3.79;60.67;100950.08;1496456;86;21484;-84
2021/12/21 02:25:32;;;;;;;3.85;1.92;;;;;;;-3.77;61.25;100955.61;1503409;86;21419;-84
2021/12/21 02:27:56;;;;;;;4.45;1.98;;;;;;;-3.81;61.22;100955.28;1498100;86;21617;-84
2021/12/21 02:30:15;;;;;;;5.35;2.67;;;;;;;-3.83;61.37;100954.46;1492180;86;23097;-83
2021/12/21 02:32:43;;;;;;;4.42;2.10;;;;;;;-3.83;61.96;100941.53;1495140;86;21315;-84
2021/12/21 02:35:11;;;;;;;3.55;1.80;;;;;;;-3.77;62.06;100942.67;1495923;86;23333;-84
2021/12/21 02:37:38;;;;;;;7.12;3.25;;;;;;;-3.74;62.08;100941.30;1500091;86;21440;-84
2021/12/21 02:40:07;;;;;;;4.80;2.15;;;;;;;-3.75;61.73;100944.75;1503553;86;21514;-84
2021/12/21 02:42:35;;;;;;;2.83;1.82;;;;;;;-3.78;61.93;100948.72;1497157;86;21537;-84
2021/12/21 02:45:04;;;;;;;4.10;2.45;;;;;;;-3.87;62.01;100939.48;1491206;86;21831;-83
2021/12/21 02:47:32;;;;;;;4.70;2.33;;;;;;;-3.93;61.69;100938.37;1503026;86;21411;-84
2021/12/21 02:50:00;;;;;;;6.53;2.98;;;;;;;-3.91;61.97;100931.87;1490112;86;21367;-84
2021/12/21 02:52:27;;;;;;;4.83;2.37;;;;;;;-3.88;61.87;100929.20;1490095;86;21396;-83
2021/12/21 02:54:54;;;;;;;5.15;2.95;;;;;;;-3.87;62.16;100925.71;1497906;86;21382;-81
2021/12/21 02:57:21;;;;;;;6.30;3.25;;;;;;;-3.88;62.28;100931.34;1508378;86;21544;-85
2021/12/21 02:59:49;;;;;;;4.58;2.30;;;;;;;-3.85;62.39;100929.11;1499435;86;21442;-82
2021/12/21 03:02:17;;;;;;;9.95;3.12;;;;;;;-3.87;61.83;100936.90;1508140;86;22608;-83
2021/12/21 03:04:46;;;;;;;4.17;2.92;;;;;;;-3.84;62.20;100941.14;1505848;86;21576;-83
2021/12/21 03:09:57;;;;;;;5.42;2.70;;;;;;;-3.90;62.25;100941.32;1505240;86;21522;-83
2021/12/21 03:14:53;;;;;;;4.80;2.75;;;;;;;-3.95;62.23;100953.52;1501453;86;21307;-84
2021/12/21 03:17:21;;;;;;;7.03;2.77;;;;;;;-3.96;62.37;100951.84;1495895;86;21859;-83
2021/12/21 03:19:48;;;;;;;4.92;2.62;;;;;;;-3.93;62.67;100951.75;1500315;86;22327;-85
2021/12/21 03:22:15;;;;;;;7.42;3.83;;;;;;;-3.92;62.65;100950.84;1499112;86;22504;-85
2021/12/21 03:24:43;;;;;;;7.87;2.75;;;;;;;-3.92;62.49;100949.55;1500180;86;21337;-84
2021/12/21 03:27:11;;;;;;;9.45;3.22;;;;;;;-3.91;62.46;100946.10;1496612;86;21412;-84
2021/12/21 03:29:39;;;;;;;10.40;3.05;;;;;;;-3.89;62.22;100955.94;1496351;86;22335;-83
2021/12/21 03:32:07;;;;;;;6.00;2.47;;;;;;;-3.88;62.34;100953.77;1500934;86;21419;-83
2021/12/21 03:34:34;;;;;;;4.80;2.83;;;;;;;-3.87;62.14;100955.45;1499519;86;21300;-82
2021/12/21 03:37:03;;;;;;;8.70;2.77;;;;;;;-3.88;62.36;100956.36;1496825;86;21514;-82
2021/12/21 03:39:30;;;;;;;6.10;2.50;;;;;;;-3.86;62.56;100963.60;1485243;86;21565;-83
2021/12/21 03:42:00;;;;;;;5.58;2.80;;;;;;;-3.82;62.60;100970.41;1498202;86;21448;-83
2021/12/21 03:44:27;;;;;;;5.92;2.65;;;;;;;-3.80;62.65;100969.05;1500808;86;22571;-84
2021/12/21 03:46:56;;;;;;;5.62;3.10;;;;;;;-3.80;62.63;100966.47;1503949;86;21388;-83
2021/12/21 03:52:06;;;;;;;4.58;2.25;;;;;;;-3.78;62.64;100977.17;1502334;86;22446;-83
2021/12/21 03:54:34;;;;;;;7.72;3.35;;;;;;;-3.77;62.55;100980.60;1503807;86;21409;-83
2021/12/21 03:57:02;;;;;;;4.97;2.58;;;;;;;-3.77;62.49;100976.72;1495028;86;21404;-83
2021/12/21 03:59:30;;;;;;;3.77;2.72;;;;;;;-3.80;62.71;100975.06;1500651;86;23092;-83
2021/12/21 04:01:58;;;;;;;4.25;2.55;;;;;;;-3.84;62.76;100974.77;1503273;86;22623;-83
2021/12/21 04:04:26;;;;;;;3.92;2.40;;;;;;;-3.90;62.93;100972.34;1501811;86;22416;-83
2021/12/21 04:06:54;;;;;;;9.88;3.77;;;;;;;-3.96;63.32;100972.52;1500853;86;22334;-83
2021/12/21 04:09:21;;;;;;;6.72;3.10;;;;;;;-4.01;63.25;100974.38;1499833;86;22488;-83
2021/12/21 04:11:48;;;;;;;9.00;3.95;;;;;;;-3.95;63.41;100972.91;1503628;86;22453;-83
2021/12/21 04:14:18;;;;;;;16.17;6.78;;;;;;;-3.89;63.51;100977.91;1494481;86;21462;-83
2021/12/21 04:16:45;;;;;;;35.83;13.98;;;;;;;-3.81;63.52;100978.55;1492406;86;21447;-83
2021/12/21 04:19:13;;;;;;;28.17;11.53;;;;;;;-3.82;63.31;100979.45;1503862;86;21410;-84
2021/12/21 04:21:41;;;;;;;23.52;10.20;;;;;;;-3.85;63.58;100976.95;1501027;86;21426;-85
2021/12/21 04:24:09;;;;;;;31.17;13.83;;;;;;;-3.94;63.55;100985.82;1507366;86;21396;-85
2021/12/21 04:26:36;;;;;;;44.38;18.73;;;;;;;-4.04;63.91;100986.10;1496743;86;21484;-85
2021/12/21 04:29:03;;;;;;;52.03;20.85;;;;;;;-4.13;63.95;100998.38;1498298;86;22496;-85
2021/12/21 04:31:30;;;;;;;42.45;17.65;;;;;;;-4.21;64.25;100995.59;1497943;86;21462;-84
2021/12/21 04:33:58;;;;;;;38.28;15.32;;;;;;;-4.29;64.64;100999.66;1505302;86;21418;-85
2021/12/21 04:36:26;;;;;;;30.75;14.07;;;;;;;-4.35;64.80;101007.57;1502575;86;21426;-85
2021/12/21 04:38:55;;;;;;;23.10;9.35;;;;;;;-4.43;65.21;101011.66;1499717;86;21359;-83
2021/12/21 04:41:23;;;;;;;15.63;6.45;;;;;;;-4.48;65.17;101016.53;1492317;86;22261;-83
2021/12/21 04:43:53;;;;;;;15.78;7.22;;;;;;;-4.56;65.73;101018.84;1500330;86;22608;-82
2021/12/21 04:46:21;;;;;;;18.45;8.15;;;;;;;-4.58;65.69;101016.73;1487520;86;21389;-82
2021/12/21 04:48:50;;;;;;;17.60;6.85;;;;;;;-4.64;66.12;101022.50;1498282;86;21544;-82
2021/12/21 04:51:18;;;;;;;15.78;6.95;;;;;;;-4.71;66.77;101023.09;1484362;86;22247;-82
2021/12/21 04:53:46;;;;;;;27.85;12.43;;;;;;;-4.84;67.92;101019.94;1480517;87;22269;-82
2021/12/21 04:56:13;;;;;;;33.10;16.37;;;;;;;-4.95;68.64;101028.81;1479891;87;22468;-83
2021/12/21 04:58:41;;;;;;;28.02;14.38;;;;;;;-4.99;67.46;101030.63;1475121;88;21412;-82
2021/12/21 05:01:08;;;;;;;22.10;12.18;;;;;;;-4.97;67.30;101035.77;1469866;88;22343;-83
2021/12/21 05:03:35;;;;;;;12.28;6.70;;;;;;;-4.94;67.57;101033.95;1471964;88;21507;-82
2021/12/21 05:06:03;;;;;;;9.95;6.17;;;;;;;-4.97;67.20;101033.18;1476647;88;21447;-82
2021/12/21 05:08:34;;;;;;;14.58;6.53;;;;;;;-5.01;67.71;101031.93;1471224;88;21419;-82
2021/12/21 05:11:03;;;;;;;10.10;5.60;;;;;;;-5.03;67.85;101032.88;1450448;88;21588;-82
2021/12/21 05:13:32;;;;;;;13.35;6.55;;;;;;;-5.06;67.92;101030.36;1482101;88;21669;-82
2021/12/21 05:16:00;;;;;;;12.33;6.25;;;;;;;-5.09;68.05;101034.27;1479915;88;21374;-83
2021/12/21 05:18:28;;;;;;;13.98;6.22;;;;;;;-5.13;68.16;101033.50;1470721;88;22468;-82
2021/12/21 05:20:56;;;;;;;17.00;7.10;;;;;;;-5.17;68.55;101042.20;1480759;88;21411;-82
2021/12/21 05:23:23;;;;;;;15.60;7.42;;;;;;;-5.20;69.03;101037.11;1478822;88;23387;-83
2021/12/21 05:25:50;;;;;;;19.57;7.65;;;;;;;-5.21;69.23;101041.84;1457053;88;21440;-82
2021/12/21 05:28:18;;;;;;;21.80;9.40;;;;;;;-5.21;69.23;101044.42;1488211;88;21338;-82
2021/12/21 05:30:47;;;;;;;24.77;11.78;;;;;;;-5.16;69.10;101041.31;1473367;88;21322;-82
2021/12/21 05:33:15;;;;;;;20.57;9.25;;;;;;;-5.12;69.06;101048.13;1475880;88;22449;-81
2021/12/21 05:35:44;;;;;;;23.73;11.55;;;;;;;-5.09;69.50;101054.51;1480891;88;21279;-82
2021/12/21 05:38:16;;;;;;;23.05;10.18;;;;;;;-5.06;69.29;101047.98;1482746;88;21404;-82
2021/12/21 05:40:43;;;;;;;21.80;10.23;;;;;;;-5.02;69.29;101057.35;1481922;88;21522;-82
2021/12/21 05:43:11;;;;;;;29.95;13.13;;;;;;;-5.00;69.83;101058.17;1474863;88;22232;-82
2021/12/21 05:45:39;;;;;;;28.38;12.53;;;;;;;-4.96;69.62;101052.94;1472636;88;21412;-83
2021/12/21 05:48:08;;;;;;;25.23;10.82;;;;;;;-4.92;69.81;101051.56;1469869;88;21577;-84
2021/12/21 05:50:35;;;;;;;23.10;10.03;;;;;;;-4.87;70.03;101050.99;1472820;88;22661;-86
2021/12/21 05:53:03;;;;;;;23.38;10.68;;;;;;;-4.82;69.82;101050.90;1475810;88;22674;-85
2021/12/21 05:55:31;;;;;;;19.30;9.35;;;;;;;-4.77;70.27;101046.48;1481266;88;21478;-82
2021/12/21 05:57:58;;;;;;;22.98;11.60;;;;;;;-4.70;70.34;101042.86;1474925;88;21419;-82
2021/12/21 06:00:32;;;;;;;27.42;11.73;;;;;;;-4.64;70.18;101044.00;1466173;88;21360;-83
2021/12/21 06:03:00;;;;;;;33.53;14.25;;;;;;;-4.57;70.37;101042.15;1466809;88;22233;-82
2021/12/21 06:05:27;;;;;;;29.35;12.88;;;;;;;-4.53;70.47;101037.30;1481641;88;22403;-80
2021/12/21 06:07:55;;;;;;;31.93;14.87;;;;;;;-4.47;70.52;101040.18;1466037;88;22277;-80
2021/12/21 06:10:30;;;;;;;32.78;14.80;;;;;;;-4.47;71.47;101049.22;1469198;88;22241;-80
2021/12/21 06:15:36;;;;;;;42.50;18.12;;;;;;;-4.45;71.38;101042.30;1473149;88;21434;-82
2021/12/21 06:24:10;;;;;;;29.12;13.25;;;;;;;-4.31;70.59;101064.77;1484431;88;21404;-86
2021/12/21 06:26:10;;;;;;;20.10;11.45;;;;;;;-4.22;69.80;101068.42;1471208;87;21506;-86
2021/12/21 06:28:37;;;;;;;126.22;54.18;;;;;;;-4.14;69.60;101059.19;1474550;88;21585;-86
2021/12/21 06:31:05;;;;;;;87.47;41.60;;;;;;;-4.09;69.46;101062.03;1475308;88;22276;-85
2021/12/21 06:33:33;;;;;;;45.67;23.40;;;;;;;-4.01;69.07;101058.41;1473586;88;21404;-85
2021/12/21 06:36:01;;;;;;;15.00;7.87;;;;;;;-3.93;68.92;101058.62;1466551;88;22483;-83
2021/12/21 06:38:29;;;;;;;15.05;6.72;;;;;;;-3.82;69.03;101043.28;1487121;88;21339;-83
2021/12/21 06:40:56;;;;;;;12.70;7.42;;;;;;;-3.72;68.43;101042.96;1490600;87;21375;-84
2021/12/21 06:43:24;;;;;;;16.10;7.33;;;;;;;-3.66;68.05;101034.19;1469886;88;22416;-85
2021/12/21 06:46:04;;;;;;;11.85;5.50;;;;;;;-3.55;68.34;101030.02;1467039;87;21553;-83
2021/12/21 06:51:31;;;;;;;38.73;15.83;;;;;;;-3.58;66.82;101052.94;1459149;87;21426;-83
2021/12/21 06:53:54;;;;;;;36.17;15.10;;;;;;;-3.60;66.92;101066.81;1467240;88;21565;-83
2021/12/21 06:56:24;;;;;;;37.25;15.48;;;;;;;-3.54;66.91;101087.34;1472858;88;21854;-83
2021/12/21 06:58:53;;;;;;;33.30;14.53;;;;;;;-3.52;66.54;101116.62;1482362;88;21499;-83
2021/12/21 07:01:22;;;;;;;35.25;16.05;;;;;;;-3.55;66.24;101112.82;1487130;87;21647;-83
2021/12/21 07:03:50;;;;;;;36.08;16.05;;;;;;;-3.53;65.99;101112.34;1477774;88;22321;-83
2021/12/21 07:06:19;;;;;;;33.35;15.28;;;;;;;-3.52;65.85;101119.20;1476595;88;21471;-83
2021/12/21 07:09:05;;;;;;;33.80;14.80;;;;;;;-3.48;65.80;101123.39;1482885;87;21323;-83
2021/12/21 07:19:36;;;;;;;32.53;11.83;;;;;;;-3.38;65.01;101118.39;1450859;90;21376;-82
2021/12/21 07:22:06;;;;;;;40.43;10.72;;;;;;;-3.32;64.84;101116.08;1472409;88;21515;-82
2021/12/21 07:24:34;;;;;;;44.90;18.45;;;;;;;-3.32;64.31;101102.68;1457605;89;22525;-81
2021/12/21 07:27:02;;;;;;;36.70;15.18;;;;;;;-3.28;64.18;101107.32;1445341;90;23446;-81
2021/12/21 07:29:29;;;;;;;47.23;18.23;;;;;;;-3.26;63.57;101101.22;1473105;88;21501;-82
2021/12/21 07:31:57;;;;;;;23.90;10.90;;;;;;;-3.28;63.60;101139.27;1453120;90;22316;-82
2021/12/21 07:34:24;;;;;;;29.87;10.13;;;;;;;-3.26;63.40;101147.81;1468369;88;22321;-81
2021/12/21 07:36:51;;;;;;;21.87;8.60;;;;;;;-3.23;63.52;101140.41;1433315;91;21427;-81
2021/12/21 07:39:19;;;;;;;16.97;6.60;;;;;;;-3.26;62.59;101137.45;1447853;90;21428;-81
2021/12/21 07:41:46;;;;;;;12.33;6.42;;;;;;;-3.30;62.01;101141.03;1471991;88;21338;-83
2021/12/21 07:44:14;;;;;;;15.58;6.95;;;;;;;-3.34;62.16;101145.87;1439236;91;21390;-83
2021/12/21 07:46:42;;;;;;;20.02;8.65;;;;;;;-3.38;62.35;101139.55;1447177;89;21375;-83
2021/12/21 07:49:10;;;;;;;18.70;8.53;;;;;;;-3.43;62.36;101138.36;1469116;88;22510;-83
2021/12/21 07:51:37;;;;;;;16.05;7.87;;;;;;;-3.42;63.04;101140.92;1452596;90;21413;-83
2021/12/21 07:54:04;;;;;;;18.73;7.37;;;;;;;-3.36;63.37;101145.54;1466789;88;21375;-83
2021/12/21 07:56:32;;;;;;;15.35;8.53;;;;;;;-3.30;63.31;101146.21;1452777;89;21361;-83
2021/12/21 07:59:00;;;;;;;12.88;5.97;;;;;;;-3.21;63.35;101153.72;1441188;89;21449;-82
2021/12/21 08:01:27;;;;;;;17.85;5.50;;;;;;;-3.12;63.35;101152.61;1441245;90;22447;-82
2021/12/21 08:03:56;;;;;;;15.35;6.80;;;;;;;-3.02;63.15;101142.41;1441283;90;21414;-83
2021/12/21 08:06:23;;;;;;;26.42;10.10;;;;;;;-2.92;63.12;101142.14;1435526;90;21507;-83
2021/12/21 08:08:52;;;;;;;19.45;9.70;;;;;;;-2.85;62.94;101134.16;1430973;91;21424;-83
2021/12/21 08:14:04;;;;;;;18.02;8.90;;;;;;;-2.58;62.78;101135.06;1433651;90;21878;-82
2021/12/21 08:16:33;;;;;;;24.52;10.20;;;;;;;-2.45;62.24;101138.57;1437550;90;21324;-83
2021/12/21 08:19:00;;;;;;;28.40;13.15;;;;;;;-2.35;62.52;101143.43;1442666;90;21538;-83
2021/12/21 08:21:29;;;;;;;28.10;12.40;;;;;;;-2.23;62.01;101146.54;1438704;91;21508;-83
2021/12/21 08:23:57;;;;;;;14.95;6.80;;;;;;;-2.13;61.91;101147.92;1434146;91;22240;-83
2021/12/21 08:26:25;;;;;;;12.28;6.45;;;;;;;-1.99;61.37;101147.03;1437018;90;22351;-83
2021/12/21 08:28:52;;;;;;;34.85;9.58;;;;;;;-1.86;60.96;101147.49;1435599;91;22388;-83
2021/12/21 08:31:19;;;;;;;14.47;7.28;;;;;;;-1.72;61.42;101149.64;1435411;91;21509;-83
2021/12/21 08:33:46;;;;;;;18.85;9.25;;;;;;;-1.57;60.99;101149.56;1434860;90;21353;-83
2021/12/21 08:36:13;;;;;;;10.20;5.35;;;;;;;-1.47;60.66;101150.46;1440857;90;21398;-83
2021/12/21 08:38:43;;;;;;;23.77;10.60;;;;;;;-1.34;59.84;101157.85;1436146;90;21981;-83
2021/12/21 08:41:10;;;;;;;13.55;4.95;;;;;;;-1.32;60.07;101165.11;1439457;90;21589;-83
2021/12/21 08:43:38;;;;;;;18.12;7.10;;;;;;;-1.24;60.80;101164.40;1437628;90;22514;-83
2021/12/21 08:46:08;;;;;;;10.03;3.83;;;;;;;-1.20;60.20;101166.84;1427379;91;22425;-83
2021/12/21 08:48:35;;;;;;;11.73;5.53;;;;;;;-1.17;59.68;101164.59;1412014;92;21456;-84
2021/12/21 08:51:04;;;;;;;26.37;8.43;;;;;;;-1.14;59.52;101161.42;1410554;92;21564;-86
2021/12/21 08:53:53;;;;;;;21.52;9.30;;;;;;;-1.08;59.81;101160.36;1411020;91;22388;-85
2021/12/21 08:56:21;;;;;;;13.78;5.45;;;;;;;-1.04;58.23;101159.79;1400831;93;21445;-83
2021/12/21 08:58:48;;;;;;;13.15;4.78;;;;;;;-0.97;59.03;101162.13;1402798;93;22346;-83
2021/12/21 09:01:17;;;;;;;9.87;4.70;;;;;;;-0.87;57.53;101153.98;1396075;93;23253;-83
2021/12/21 09:03:45;;;;;;;11.90;5.40;;;;;;;-0.75;57.13;101154.39;1428765;91;22820;-84
2021/12/21 09:06:13;;;;;;;11.70;5.78;;;;;;;-0.64;55.86;101147.92;1412347;92;21397;-82
2021/12/21 09:08:40;;;;;;;10.13;5.80;;;;;;;-0.57;56.47;101152.84;1404640;91;22315;-83
2021/12/21 09:11:07;;;;;;;8.43;3.63;;;;;;;-0.53;56.55;101155.70;1407859;92;22188;-83
2021/12/21 09:13:35;;;;;;;7.90;4.53;;;;;;;-0.49;56.72;101154.69;1415002;92;21458;-83
2021/12/21 09:16:02;;;;;;;8.43;4.20;;;;;;;-0.44;56.84;101157.55;1409168;92;21383;-84
2021/12/21 09:18:30;;;;;;;5.93;3.20;;;;;;;-0.41;57.14;101156.98;1405447;92;22720;-83
2021/12/21 09:20:57;;;;;;;8.33;3.00;;;;;;;-0.39;56.42;101153.03;1399350;92;21624;-83
2021/12/21 09:23:24;;;;;;;7.73;3.33;;;;;;;-0.33;56.58;101157.98;1407886;92;22208;-83
2021/12/21 09:25:51;;;;;;;4.13;1.93;;;;;;;-0.22;56.94;101163.62;1399934;93;21702;-83
2021/12/21 09:28:18;;;;;;;5.97;3.00;;;;;;;-0.22;55.94;101166.22;1396416;91;22576;-82
2021/12/21 09:30:46;;;;;;;6.47;3.17;;;;;;;-0.13;56.41;101167.15;1408489;92;21529;-83
2021/12/21 09:33:14;;;;;;;8.17;2.60;;;;;;;-0.05;56.51;101165.55;1403303;93;21495;-81
2021/12/21 09:35:41;;;;;;;6.73;2.90;;;;;;;-0.11;55.52;101165.34;1408223;93;21858;-83
2021/12/21 09:38:08;;;;;;;18.37;4.33;;;;;;;-0.10;56.19;101160.52;1408445;93;21666;-83
2021/12/21 09:40:39;;;;;;;5.80;2.83;;;;;;;-0.03;56.51;101159.37;1411680;92;22518;-83
2021/12/21 09:43:08;;;;;;;4.97;2.60;;;;;;;0.08;56.82;101156.78;1415336;92;21655;-84
2021/12/21 09:45:38;;;;;;;5.37;3.05;;;;;;;0.15;56.70;101162.14;1417891;92;22394;-83
2021/12/21 09:48:08;;;;;;;6.13;2.60;;;;;;;0.25;57.56;101169.11;1414090;92;22488;-82
2021/12/21 09:50:36;;;;;;;6.22;3.08;;;;;;;0.16;57.16;101163.83;1417551;92;21448;-83
2021/12/21 09:53:04;;;;;;;7.03;3.00;;;;;;;0.13;57.62;101164.80;1409890;92;21572;-83
2021/12/21 09:55:31;;;;;;;5.97;2.83;;;;;;;0.14;57.92;101169.54;1415635;91;21731;-83
2021/12/21 09:57:59;;;;;;;5.97;2.83;;;;;;;0.06;57.48;101169.00;1419322;92;21596;-83
2021/12/21 10:00:32;;;;;;;6.57;2.80;;;;;;;0.37;57.55;101164.22;1418076;92;21360;-83
2021/12/21 10:03:05;;;;;;;7.97;4.60;;;;;;;1.13;57.29;101164.42;1424545;91;21411;-83
2021/12/21 10:05:37;;;;;;;6.83;3.87;;;;;;;2.02;56.68;101158.48;1421911;92;21498;-83
2021/12/21 10:08:09;;;;;;;6.57;3.37;;;;;;;3.32;53.26;101155.30;1420299;91;22559;-86
2021/12/21 10:10:41;;;;;;;7.20;3.53;;;;;;;3.32;53.26;101155.30;1418942;92;21948;-86
2021/12/21 10:13:16;;;;;;;6.10;3.60;;;;;;;3.68;50.53;101149.80;1423009;92;22499;-86
2021/12/21 10:15:50;;;;;;;5.73;3.47;;;;;;;4.08;51.92;101152.78;1413717;91;21627;-86
2021/12/21 10:18:34;;;;;;;9.53;4.93;;;;;;;4.36;49.35;101157.27;1419937;91;22308;-87
2021/12/21 10:21:06;;;;;;;14.87;5.70;;;;;;;4.76;50.94;101144.42;1423893;91;22345;-85
2021/12/21 10:23:35;;;;;;;;;;;;;;;4.81;49.30;101149.41;1420736;92;21405;-86
2021/12/21 10:26:19;;;;;;;15.10;6.37;;;;;;;4.44;46.01;101139.80;1416793;91;20812;-85
2021/12/21 10:28:51;;;;;;;8.73;4.80;;;;;;;4.82;48.40;101141.42;1422260;92;21480;-85
2021/12/21 10:31:36;;;;;;;8.23;4.17;;;;;;;4.92;47.38;101125.52;1421923;90;21670;-85
2021/12/21 10:34:08;;;;;;;16.83;5.40;;;;;;;4.95;45.29;101127.95;1443717;88;21590;-85
2021/12/21 10:36:44;;;;;;;9.97;4.03;;;;;;;5.18;48.25;101123.06;1445318;89;21568;-86
2021/12/21 10:39:22;;;;;;;7.50;4.57;;;;;;;5.64;48.10;101126.23;1504056;89;21347;-86
2021/12/21 10:41:52;;;;;;;6.90;4.13;;;;;;;5.31;45.42;101128.37;1522373;89;21288;-85
2021/12/21 10:44:20;;;;;;;8.27;4.63;;;;;;;5.27;46.91;101134.77;1364526;89;21442;-88
2021/12/21 10:46:53;;;;;;;10.87;4.63;;;;;;;5.46;47.81;101130.48;1422399;89;21458;-85
2021/12/21 10:49:25;;;;;;;5.60;3.77;;;;;;;5.61;45.97;101122.94;1402477;89;21417;-85
2021/12/21 10:52:09;;;;;;;7.53;4.53;;;;;;;5.68;46.66;101120.30;1517749;89;21628;-85
2021/12/21 10:54:46;;;;;;;9.57;5.70;;;;;;;5.45;43.99;101122.25;1526532;89;22267;-85
2021/12/21 10:57:19;;;;;;;9.97;4.23;;;;;;;5.28;44.49;101125.94;1517877;89;21246;-86
2021/12/21 10:59:52;;;;;;;8.23;3.87;;;;;;;5.31;45.44;101123.95;1523007;89;21260;-86
2021/12/21 11:02:26;;;;;;;6.67;4.03;;;;;;;5.13;45.61;101128.58;1484601;89;21601;-86
2021/12/21 11:05:13;;;;;;;5.87;3.57;;;;;;;5.02;45.89;101132.81;1437345;89;21993;-86
2021/12/21 11:07:56;;;;;;;13.60;7.10;;;;;;;5.26;46.55;101136.52;1434781;88;21451;-86
2021/12/21 11:10:34;;;;;;;10.48;3.85;;;;;;;5.27;43.69;101132.97;1445471;88;21372;-86
2021/12/21 11:13:11;;;;;;;7.93;4.53;;;;;;;5.10;43.48;101126.15;1439517;89;21317;-87
2021/12/21 11:15:52;;;;;;;7.50;4.27;;;;;;;4.86;43.23;101118.02;1445546;89;21465;-86
2021/12/21 11:18:19;;;;;;;6.43;3.57;;;;;;;4.62;44.48;101129.98;1434512;89;21539;-86
2021/12/21 11:20:51;;;;;;;7.60;4.23;;;;;;;4.78;44.17;101130.76;1440521;89;21413;-86
2021/12/21 11:23:21;;;;;;;5.63;3.50;;;;;;;4.93;44.99;101132.91;1437439;89;22397;-86
2021/12/21 11:25:56;;;;;;;10.38;4.08;;;;;;;4.92;44.31;101125.52;1441046;89;21460;-90
2021/12/21 11:28:27;;;;;;;10.50;5.57;;;;;;;4.89;50.65;101136.20;1438586;89;22138;-90
2021/12/21 11:30:59;;;;;;;;;;;;;;;5.25;47.14;101131.38;1438544;89;21569;-89
2021/12/21 11:33:43;;;;;;;8.50;4.87;;;;;;;5.30;44.99;101129.31;1438605;89;20312;-89
2021/12/21 11:39:04;;;;;;;5.47;3.72;;;;;;;5.80;44.24;101123.44;1438493;88;22322;-91
2021/12/21 11:41:32;;;;;;;6.43;3.47;;;;;;;6.14;45.02;101125.20;1444461;89;21404;-84
2021/12/21 11:44:21;;;;;;;7.07;3.63;;;;;;;6.25;43.18;101123.17;1434346;89;21441;-84
2021/12/21 11:47:01;;;;;;;7.40;4.30;;;;;;;6.22;42.86;101121.59;1440519;89;21460;-84
2021/12/21 11:49:50;;;;;;;9.17;3.93;;;;;;;6.37;43.64;101110.99;1430619;89;21405;-83
2021/12/21 11:52:21;;;;;;;9.48;4.97;;;;;;;6.54;42.39;101117.27;1391943;88;21310;-84
2021/12/21 11:54:59;;;;;;;5.60;3.43;;;;;;;6.43;42.70;101118.46;1528881;89;21248;-84
2021/12/21 11:57:41;;;;;;;6.33;3.67;;;;;;;6.33;42.63;101119.09;1512396;89;22774;-84
2021/12/21 12:00:16;;;;;;;5.40;3.50;;;;;;;6.02;42.70;101116.83;1397410;89;22217;-84
2021/12/21 12:02:45;;;;;;;13.43;4.67;;;;;;;4.93;42.83;101119.31;1507145;91;22235;-85
2021/12/21 12:05:31;;;;;;;7.77;3.53;;;;;;;4.35;44.21;101118.07;1357546;91;22215;-84
2021/12/21 12:08:12;;;;;;;8.67;3.70;;;;;;;3.87;44.64;101118.20;1354878;91;22316;-83
2021/12/21 12:10:53;;;;;;;;;;;;;;;3.61;45.15;101112.66;1388329;91;21576;-85
2021/12/21 12:13:40;;;;;;;3.83;2.60;;;;;;;3.62;45.91;101113.49;1512035;89;20797;-84
2021/12/21 12:16:14;;;;;;;5.17;3.23;;;;;;;3.69;45.76;101119.25;1432207;91;21776;-84
2021/12/21 12:18:50;;;;;;;5.20;2.97;;;;;;;3.50;46.96;101126.80;1434387;91;21533;-84
2021/12/21 12:21:24;;;;;;;5.40;2.57;;;;;;;3.29;47.89;101125.38;1434243;91;21494;-84